sensor_id;sensor_type;location;lat;lon;timestamp;temperature;humidity
14727;DHT22;7454;51.256;8.176;2022-11-11T00:02:18;7.80;78.70
14727;DHT22;7454;51.256;8.176;2022-11-11T00:05:02;7.80;78.70
14727;DHT22;7454;51.256;8.176;2022-11-11T00:07:47;7.80;78.80
14727;DHT22;7454;51.256;8.176;2022-11-11T00:10:31;7.70;78.70
14727;DHT22;7454;51.256;8.176;2022-11-11T00:13:16;7.70;78.70
14727;DHT22;7454;51.256;8.176;2022-11-11T00:18:54;7.70;78.80
14727;DHT22;7454;51.256;8.176;2022-11-11T00:21:58;7.60;78.70
14727;DHT22;7454;51.256;8.176;2022-11-11T00:25:01;7.60;78.60
14727;DHT22;7454;51.256;8.176;2022-11-11T00:27:51;7.60;78.50
14727;DHT22;7454;51.256;8.176;2022-11-11T00:30:35;7.50;78.50
14727;DHT22;7454;51.256;8.176;2022-11-11T00:33:19;7.50;78.60
14727;DHT22;7454;51.256;8.176;2022-11-11T00:36:04;7.50;78.70
14727;DHT22;7454;51.256;8.176;2022-11-11T00:38:48;7.50;78.70
14727;DHT22;7454;51.256;8.176;2022-11-11T00:41:35;7.60;78.80
14727;DHT22;7454;51.256;8.176;2022-11-11T00:44:19;7.50;78.80
14727;DHT22;7454;51.256;8.176;2022-11-11T00:47:04;7.50;78.80
14727;DHT22;7454;51.256;8.176;2022-11-11T00:50:09;7.50;78.80
14727;DHT22;7454;51.256;8.176;2022-11-11T00:53:17;7.50;78.90
14727;DHT22;7454;51.256;8.176;2022-11-11T00:56:05;7.50;79.10
14727;DHT22;7454;51.256;8.176;2022-11-11T00:58:49;7.50;79.00
14727;DHT22;7454;51.256;8.176;2022-11-11T01:01:34;7.50;78.90
14727;DHT22;7454;51.256;8.176;2022-11-11T01:04:19;7.50;78.70
14727;DHT22;7454;51.256;8.176;2022-11-11T01:07:03;7.40;78.70
14727;DHT22;7454;51.256;8.176;2022-11-11T01:09:48;7.50;78.80
14727;DHT22;7454;51.256;8.176;2022-11-11T01:12:32;7.40;78.80
14727;DHT22;7454;51.256;8.176;2022-11-11T01:15:16;7.40;78.90
14727;DHT22;7454;51.256;8.176;2022-11-11T01:18:00;7.50;79.00
14727;DHT22;7454;51.256;8.176;2022-11-11T01:20:45;7.40;79.00
14727;DHT22;7454;51.256;8.176;2022-11-11T01:23:30;7.40;79.00
14727;DHT22;7454;51.256;8.176;2022-11-11T01:29:01;7.40;79.00
14727;DHT22;7454;51.256;8.176;2022-11-11T01:31:45;7.40;79.00
14727;DHT22;7454;51.256;8.176;2022-11-11T01:34:30;7.50;79.00
14727;DHT22;7454;51.256;8.176;2022-11-11T01:37:14;7.50;78.90
14727;DHT22;7454;51.256;8.176;2022-11-11T01:39:58;7.50;78.90
14727;DHT22;7454;51.256;8.176;2022-11-11T01:42:50;7.50;78.80
14727;DHT22;7454;51.256;8.176;2022-11-11T01:45:58;7.50;78.40
14727;DHT22;7454;51.256;8.176;2022-11-11T01:48:47;7.40;78.50
14727;DHT22;7454;51.256;8.176;2022-11-11T01:55:18;7.30;78.70
14727;DHT22;7454;51.256;8.176;2022-11-11T01:58:11;7.30;78.80
14727;DHT22;7454;51.256;8.176;2022-11-11T02:00:57;7.30;78.80
14727;DHT22;7454;51.256;8.176;2022-11-11T02:03:43;7.50;78.90
14727;DHT22;7454;51.256;8.176;2022-11-11T02:06:48;7.20;78.70
14727;DHT22;7454;51.256;8.176;2022-11-11T02:09:37;7.20;78.60
14727;DHT22;7454;51.256;8.176;2022-11-11T02:12:26;7.20;78.50
14727;DHT22;7454;51.256;8.176;2022-11-11T02:15:29;7.10;78.50
14727;DHT22;7454;51.256;8.176;2022-11-11T02:18:13;7.20;78.50
14727;DHT22;7454;51.256;8.176;2022-11-11T02:20:57;7.20;78.50
14727;DHT22;7454;51.256;8.176;2022-11-11T02:23:45;7.10;78.30
14727;DHT22;7454;51.256;8.176;2022-11-11T02:26:43;7.10;78.40
14727;DHT22;7454;51.256;8.176;2022-11-11T02:29:28;7.10;78.50
14727;DHT22;7454;51.256;8.176;2022-11-11T02:32:13;7.10;78.60
14727;DHT22;7454;51.256;8.176;2022-11-11T02:34:58;7.00;78.40
14727;DHT22;7454;51.256;8.176;2022-11-11T02:37:43;6.90;78.10
14727;DHT22;7454;51.256;8.176;2022-11-11T02:40:39;7.00;78.50
14727;DHT22;7454;51.256;8.176;2022-11-11T02:43:44;7.00;78.40
14727;DHT22;7454;51.256;8.176;2022-11-11T02:46:28;7.00;78.40
14727;DHT22;7454;51.256;8.176;2022-11-11T02:49:12;6.90;78.40
14727;DHT22;7454;51.256;8.176;2022-11-11T02:51:56;6.90;78.50
14727;DHT22;7454;51.256;8.176;2022-11-11T02:54:41;7.00;78.50
14727;DHT22;7454;51.256;8.176;2022-11-11T02:57:26;7.10;78.30
14727;DHT22;7454;51.256;8.176;2022-11-11T03:00:11;7.00;78.40
14727;DHT22;7454;51.256;8.176;2022-11-11T03:02:56;7.00;78.40
14727;DHT22;7454;51.256;8.176;2022-11-11T03:05:40;7.00;78.40
14727;DHT22;7454;51.256;8.176;2022-11-11T03:08:24;7.00;78.50
14727;DHT22;7454;51.256;8.176;2022-11-11T03:11:09;7.00;78.60
14727;DHT22;7454;51.256;8.176;2022-11-11T03:13:56;7.00;78.60
14727;DHT22;7454;51.256;8.176;2022-11-11T03:16:41;7.00;78.60
14727;DHT22;7454;51.256;8.176;2022-11-11T03:19:44;7.00;78.60
14727;DHT22;7454;51.256;8.176;2022-11-11T03:22:28;6.90;78.70
14727;DHT22;7454;51.256;8.176;2022-11-11T03:25:12;6.90;78.70
14727;DHT22;7454;51.256;8.176;2022-11-11T03:28:35;6.90;78.60
14727;DHT22;7454;51.256;8.176;2022-11-11T03:31:19;6.90;78.40
14727;DHT22;7454;51.256;8.176;2022-11-11T03:34:04;6.90;78.50
14727;DHT22;7454;51.256;8.176;2022-11-11T03:37:04;6.80;78.40
14727;DHT22;7454;51.256;8.176;2022-11-11T03:40:08;6.80;78.40
14727;DHT22;7454;51.256;8.176;2022-11-11T03:42:53;6.80;78.30
14727;DHT22;7454;51.256;8.176;2022-11-11T03:45:37;6.80;78.30
14727;DHT22;7454;51.256;8.176;2022-11-11T03:48:22;6.70;78.30
14727;DHT22;7454;51.256;8.176;2022-11-11T03:51:07;6.70;78.20
14727;DHT22;7454;51.256;8.176;2022-11-11T03:53:52;6.60;78.10
14727;DHT22;7454;51.256;8.176;2022-11-11T03:56:36;6.60;78.20
14727;DHT22;7454;51.256;8.176;2022-11-11T03:59:21;6.60;78.20
14727;DHT22;7454;51.256;8.176;2022-11-11T04:02:05;6.60;78.20
14727;DHT22;7454;51.256;8.176;2022-11-11T04:05:12;6.60;78.20
14727;DHT22;7454;51.256;8.176;2022-11-11T04:08:16;6.50;78.10
14727;DHT22;7454;51.256;8.176;2022-11-11T04:11:22;6.50;78.40
14727;DHT22;7454;51.256;8.176;2022-11-11T04:14:09;6.60;78.30
14727;DHT22;7454;51.256;8.176;2022-11-11T04:17:13;6.60;78.50
14727;DHT22;7454;51.256;8.176;2022-11-11T04:19:57;6.60;78.60
14727;DHT22;7454;51.256;8.176;2022-11-11T04:23:00;6.70;78.80
14727;DHT22;7454;51.256;8.176;2022-11-11T04:25:44;6.70;78.70
14727;DHT22;7454;51.256;8.176;2022-11-11T04:28:32;6.80;78.90
14727;DHT22;7454;51.256;8.176;2022-11-11T04:31:34;6.80;78.70
14727;DHT22;7454;51.256;8.176;2022-11-11T04:34:19;6.70;78.00
14727;DHT22;7454;51.256;8.176;2022-11-11T04:37:03;6.60;77.80
14727;DHT22;7454;51.256;8.176;2022-11-11T04:39:47;6.50;77.80
14727;DHT22;7454;51.256;8.176;2022-11-11T04:42:53;6.50;78.50
14727;DHT22;7454;51.256;8.176;2022-11-11T04:45:37;6.60;78.80
14727;DHT22;7454;51.256;8.176;2022-11-11T04:48:22;6.60;78.80
14727;DHT22;7454;51.256;8.176;2022-11-11T04:51:06;6.60;78.80
14727;DHT22;7454;51.256;8.176;2022-11-11T04:53:50;6.60;78.80
14727;DHT22;7454;51.256;8.176;2022-11-11T04:56:34;6.70;78.80
14727;DHT22;7454;51.256;8.176;2022-11-11T04:59:30;6.70;78.70
14727;DHT22;7454;51.256;8.176;2022-11-11T05:02:14;6.70;78.90
14727;DHT22;7454;51.256;8.176;2022-11-11T05:05:17;6.80;78.80
14727;DHT22;7454;51.256;8.176;2022-11-11T05:08:02;6.70;78.80
14727;DHT22;7454;51.256;8.176;2022-11-11T05:11:04;6.70;78.40
14727;DHT22;7454;51.256;8.176;2022-11-11T05:13:49;6.70;78.60
14727;DHT22;7454;51.256;8.176;2022-11-11T05:16:54;6.60;78.60
14727;DHT22;7454;51.256;8.176;2022-11-11T05:19:59;6.60;78.70
14727;DHT22;7454;51.256;8.176;2022-11-11T05:23:02;6.60;78.70
14727;DHT22;7454;51.256;8.176;2022-11-11T05:25:46;6.70;78.90
14727;DHT22;7454;51.256;8.176;2022-11-11T05:28:30;6.60;78.90
14727;DHT22;7454;51.256;8.176;2022-11-11T05:31:15;6.70;78.80
14727;DHT22;7454;51.256;8.176;2022-11-11T05:33:59;6.70;78.90
14727;DHT22;7454;51.256;8.176;2022-11-11T05:36:43;6.70;78.80
14727;DHT22;7454;51.256;8.176;2022-11-11T05:39:28;6.70;78.80
14727;DHT22;7454;51.256;8.176;2022-11-11T05:42:12;6.70;78.80
14727;DHT22;7454;51.256;8.176;2022-11-11T05:44:56;6.70;78.90
14727;DHT22;7454;51.256;8.176;2022-11-11T05:47:41;6.60;78.90
14727;DHT22;7454;51.256;8.176;2022-11-11T05:50:25;6.60;78.80
14727;DHT22;7454;51.256;8.176;2022-11-11T05:53:09;6.60;78.80
14727;DHT22;7454;51.256;8.176;2022-11-11T05:55:56;6.60;78.80
14727;DHT22;7454;51.256;8.176;2022-11-11T05:58:40;6.60;78.80
14727;DHT22;7454;51.256;8.176;2022-11-11T06:01:25;6.60;78.80
14727;DHT22;7454;51.256;8.176;2022-11-11T06:04:10;6.60;78.70
14727;DHT22;7454;51.256;8.176;2022-11-11T06:06:54;6.60;78.80
14727;DHT22;7454;51.256;8.176;2022-11-11T06:09:38;6.60;78.60
14727;DHT22;7454;51.256;8.176;2022-11-11T06:12:23;6.60;78.60
14727;DHT22;7454;51.256;8.176;2022-11-11T06:15:07;6.60;78.60
14727;DHT22;7454;51.256;8.176;2022-11-11T06:17:52;6.60;78.60
14727;DHT22;7454;51.256;8.176;2022-11-11T06:20:36;6.60;78.60
14727;DHT22;7454;51.256;8.176;2022-11-11T06:23:20;6.60;78.60
14727;DHT22;7454;51.256;8.176;2022-11-11T06:26:04;6.60;78.80
14727;DHT22;7454;51.256;8.176;2022-11-11T06:28:58;6.70;78.80
14727;DHT22;7454;51.256;8.176;2022-11-11T06:31:42;6.60;78.70
14727;DHT22;7454;51.256;8.176;2022-11-11T06:34:28;6.60;78.70
14727;DHT22;7454;51.256;8.176;2022-11-11T06:37:12;6.60;78.70
14727;DHT22;7454;51.256;8.176;2022-11-11T06:39:56;6.60;78.60
14727;DHT22;7454;51.256;8.176;2022-11-11T06:42:40;6.60;78.70
14727;DHT22;7454;51.256;8.176;2022-11-11T06:45:24;6.50;78.60
14727;DHT22;7454;51.256;8.176;2022-11-11T06:48:09;6.60;78.70
14727;DHT22;7454;51.256;8.176;2022-11-11T06:50:54;6.70;78.70
14727;DHT22;7454;51.256;8.176;2022-11-11T06:53:39;6.60;78.70
14727;DHT22;7454;51.256;8.176;2022-11-11T06:56:24;6.60;78.60
14727;DHT22;7454;51.256;8.176;2022-11-11T06:59:08;6.60;78.60
14727;DHT22;7454;51.256;8.176;2022-11-11T07:01:52;6.70;78.60
14727;DHT22;7454;51.256;8.176;2022-11-11T07:04:37;6.70;78.60
14727;DHT22;7454;51.256;8.176;2022-11-11T07:07:21;6.70;78.60
14727;DHT22;7454;51.256;8.176;2022-11-11T07:10:05;6.70;78.60
14727;DHT22;7454;51.256;8.176;2022-11-11T07:12:53;6.80;78.60
14727;DHT22;7454;51.256;8.176;2022-11-11T07:15:37;6.80;78.70
14727;DHT22;7454;51.256;8.176;2022-11-11T07:18:21;6.80;78.70
14727;DHT22;7454;51.256;8.176;2022-11-11T07:21:06;6.80;78.70
14727;DHT22;7454;51.256;8.176;2022-11-11T07:23:50;6.80;78.80
14727;DHT22;7454;51.256;8.176;2022-11-11T07:26:34;6.80;78.90
14727;DHT22;7454;51.256;8.176;2022-11-11T07:29:18;6.90;78.90
14727;DHT22;7454;51.256;8.176;2022-11-11T07:32:02;6.90;78.80
14727;DHT22;7454;51.256;8.176;2022-11-11T07:34:47;7.00;78.80
14727;DHT22;7454;51.256;8.176;2022-11-11T07:37:34;7.10;79.00
14727;DHT22;7454;51.256;8.176;2022-11-11T07:40:19;7.00;78.90
14727;DHT22;7454;51.256;8.176;2022-11-11T07:43:04;7.10;79.00
14727;DHT22;7454;51.256;8.176;2022-11-11T07:45:48;7.20;79.00
14727;DHT22;7454;51.256;8.176;2022-11-11T07:48:32;7.20;78.90
14727;DHT22;7454;51.256;8.176;2022-11-11T07:51:16;7.20;79.00
14727;DHT22;7454;51.256;8.176;2022-11-11T07:54:00;7.30;79.10
14727;DHT22;7454;51.256;8.176;2022-11-11T07:56:44;7.30;79.00
14727;DHT22;7454;51.256;8.176;2022-11-11T07:59:29;7.30;79.10
14727;DHT22;7454;51.256;8.176;2022-11-11T08:02:13;7.40;79.20
14727;DHT22;7454;51.256;8.176;2022-11-11T08:04:57;7.40;79.20
14727;DHT22;7454;51.256;8.176;2022-11-11T08:07:41;7.50;79.20
14727;DHT22;7454;51.256;8.176;2022-11-11T08:10:26;7.50;79.10
14727;DHT22;7454;51.256;8.176;2022-11-11T08:13:10;7.50;79.10
14727;DHT22;7454;51.256;8.176;2022-11-11T08:16:13;7.60;79.10
14727;DHT22;7454;51.256;8.176;2022-11-11T08:18:58;7.70;79.10
14727;DHT22;7454;51.256;8.176;2022-11-11T08:21:42;7.70;79.10
14727;DHT22;7454;51.256;8.176;2022-11-11T08:24:26;7.70;79.00
14727;DHT22;7454;51.256;8.176;2022-11-11T08:27:10;7.80;79.00
14727;DHT22;7454;51.256;8.176;2022-11-11T08:29:55;7.80;79.00
14727;DHT22;7454;51.256;8.176;2022-11-11T08:32:39;7.80;79.00
14727;DHT22;7454;51.256;8.176;2022-11-11T08:35:23;7.90;79.10
14727;DHT22;7454;51.256;8.176;2022-11-11T08:38:08;8.00;79.10
14727;DHT22;7454;51.256;8.176;2022-11-11T08:40:52;8.00;79.00
14727;DHT22;7454;51.256;8.176;2022-11-11T08:43:37;8.00;78.90
14727;DHT22;7454;51.256;8.176;2022-11-11T08:46:21;8.00;78.90
14727;DHT22;7454;51.256;8.176;2022-11-11T08:49:06;8.00;79.10
14727;DHT22;7454;51.256;8.176;2022-11-11T08:51:51;8.10;79.00
14727;DHT22;7454;51.256;8.176;2022-11-11T08:54:36;8.00;78.90
14727;DHT22;7454;51.256;8.176;2022-11-11T08:57:20;8.10;79.00
14727;DHT22;7454;51.256;8.176;2022-11-11T09:00:05;8.10;79.00
14727;DHT22;7454;51.256;8.176;2022-11-11T09:02:50;8.10;79.10
14727;DHT22;7454;51.256;8.176;2022-11-11T09:05:36;8.10;79.00
14727;DHT22;7454;51.256;8.176;2022-11-11T09:08:20;8.20;79.00
14727;DHT22;7454;51.256;8.176;2022-11-11T09:11:04;8.10;79.10
14727;DHT22;7454;51.256;8.176;2022-11-11T09:13:48;8.20;79.20
14727;DHT22;7454;51.256;8.176;2022-11-11T09:16:33;8.20;79.20
14727;DHT22;7454;51.256;8.176;2022-11-11T09:19:17;8.20;79.20
14727;DHT22;7454;51.256;8.176;2022-11-11T09:22:01;8.30;79.20
14727;DHT22;7454;51.256;8.176;2022-11-11T09:24:45;8.40;79.10
14727;DHT22;7454;51.256;8.176;2022-11-11T09:27:29;8.40;79.20
14727;DHT22;7454;51.256;8.176;2022-11-11T09:30:14;8.40;79.10
14727;DHT22;7454;51.256;8.176;2022-11-11T09:33:02;8.50;79.20
14727;DHT22;7454;51.256;8.176;2022-11-11T09:35:47;8.50;79.30
14727;DHT22;7454;51.256;8.176;2022-11-11T09:38:31;8.50;79.20
14727;DHT22;7454;51.256;8.176;2022-11-11T09:47:34;8.70;79.40
14727;DHT22;7454;51.256;8.176;2022-11-11T09:50:25;8.70;79.20
14727;DHT22;7454;51.256;8.176;2022-11-11T09:53:26;8.70;79.20
14727;DHT22;7454;51.256;8.176;2022-11-11T09:56:20;8.70;79.30
14727;DHT22;7454;51.256;8.176;2022-11-11T09:59:16;8.80;79.20
14727;DHT22;7454;51.256;8.176;2022-11-11T10:02:02;8.80;79.30
14727;DHT22;7454;51.256;8.176;2022-11-11T10:04:54;8.80;79.10
14727;DHT22;7454;51.256;8.176;2022-11-11T10:07:50;8.90;79.20
14727;DHT22;7454;51.256;8.176;2022-11-11T10:10:54;8.90;79.20
14727;DHT22;7454;51.256;8.176;2022-11-11T10:13:39;9.00;79.40
14727;DHT22;7454;51.256;8.176;2022-11-11T10:19:29;9.00;79.20
14727;DHT22;7454;51.256;8.176;2022-11-11T10:22:20;9.10;79.10
14727;DHT22;7454;51.256;8.176;2022-11-11T10:25:21;9.10;79.30
14727;DHT22;7454;51.256;8.176;2022-11-11T10:28:14;9.20;79.20
14727;DHT22;7454;51.256;8.176;2022-11-11T10:31:00;9.20;79.00
14727;DHT22;7454;51.256;8.176;2022-11-11T10:36:42;9.30;79.10
14727;DHT22;7454;51.256;8.176;2022-11-11T10:39:43;9.30;79.00
14727;DHT22;7454;51.256;8.176;2022-11-11T10:42:33;9.30;79.00
14727;DHT22;7454;51.256;8.176;2022-11-11T10:54:51;9.50;78.90
14727;DHT22;7454;51.256;8.176;2022-11-11T10:57:40;9.50;79.20
14727;DHT22;7454;51.256;8.176;2022-11-11T11:00:35;9.60;79.10
14727;DHT22;7454;51.256;8.176;2022-11-11T11:06:27;9.70;78.70
14727;DHT22;7454;51.256;8.176;2022-11-11T11:09:14;9.70;78.70
14727;DHT22;7454;51.256;8.176;2022-11-11T11:15:09;9.70;78.60
14727;DHT22;7454;51.256;8.176;2022-11-11T11:18:07;9.80;78.70
14727;DHT22;7454;51.256;8.176;2022-11-11T11:21:03;9.80;78.80
14727;DHT22;7454;51.256;8.176;2022-11-11T11:23:48;9.80;78.70
14727;DHT22;7454;51.256;8.176;2022-11-11T11:26:43;9.90;78.60
14727;DHT22;7454;51.256;8.176;2022-11-11T11:32:17;9.90;78.70
14727;DHT22;7454;51.256;8.176;2022-11-11T11:35:12;9.90;78.60
14727;DHT22;7454;51.256;8.176;2022-11-11T11:38:13;10.00;78.50
14727;DHT22;7454;51.256;8.176;2022-11-11T11:40:57;10.00;78.70
14727;DHT22;7454;51.256;8.176;2022-11-11T11:43:41;10.10;78.50
14727;DHT22;7454;51.256;8.176;2022-11-11T11:46:35;9.90;78.30
14727;DHT22;7454;51.256;8.176;2022-11-11T11:50:07;10.20;78.50
14727;DHT22;7454;51.256;8.176;2022-11-11T11:55:43;10.20;78.30
14727;DHT22;7454;51.256;8.176;2022-11-11T12:11:05;10.50;78.30
14727;DHT22;7454;51.256;8.176;2022-11-11T12:14:02;10.50;78.20
14727;DHT22;7454;51.256;8.176;2022-11-11T12:16:59;10.60;78.20
14727;DHT22;7454;51.256;8.176;2022-11-11T12:23:12;10.70;78.10
14727;DHT22;7454;51.256;8.176;2022-11-11T12:29:00;10.70;78.00
14727;DHT22;7454;51.256;8.176;2022-11-11T12:40:25;11.10;77.60
14727;DHT22;7454;51.256;8.176;2022-11-11T12:47:02;11.00;77.30
14727;DHT22;7454;51.256;8.176;2022-11-11T12:49:53;11.00;77.40
14727;DHT22;7454;51.256;8.176;2022-11-11T12:59:07;11.10;77.50
14727;DHT22;7454;51.256;8.176;2022-11-11T13:02:10;11.10;77.40
14727;DHT22;7454;51.256;8.176;2022-11-11T13:08:11;11.20;77.00
14727;DHT22;7454;51.256;8.176;2022-11-11T13:11:10;11.30;77.10
14727;DHT22;7454;51.256;8.176;2022-11-11T13:17:32;11.30;77.40
14727;DHT22;7454;51.256;8.176;2022-11-11T13:23:08;11.40;77.00
14727;DHT22;7454;51.256;8.176;2022-11-11T13:25:54;11.60;77.10
14727;DHT22;7454;51.256;8.176;2022-11-11T13:28:42;11.40;77.10
14727;DHT22;7454;51.256;8.176;2022-11-11T13:31:32;11.50;77.00
14727;DHT22;7454;51.256;8.176;2022-11-11T13:34:20;11.50;77.00
14727;DHT22;7454;51.256;8.176;2022-11-11T13:37:05;11.50;77.30
14727;DHT22;7454;51.256;8.176;2022-11-11T13:39:52;11.50;77.10
14727;DHT22;7454;51.256;8.176;2022-11-11T13:42:41;11.50;76.70
14727;DHT22;7454;51.256;8.176;2022-11-11T13:45:32;11.50;76.80
14727;DHT22;7454;51.256;8.176;2022-11-11T13:48:23;11.50;76.70
14727;DHT22;7454;51.256;8.176;2022-11-11T13:57:12;11.60;76.80
14727;DHT22;7454;51.256;8.176;2022-11-11T14:00:05;11.60;76.70
14727;DHT22;7454;51.256;8.176;2022-11-11T14:08:57;11.60;77.10
14727;DHT22;7454;51.256;8.176;2022-11-11T14:11:42;11.60;76.90
14727;DHT22;7454;51.256;8.176;2022-11-11T14:17:19;11.60;76.80
14727;DHT22;7454;51.256;8.176;2022-11-11T14:20:32;11.50;76.90
14727;DHT22;7454;51.256;8.176;2022-11-11T14:23:25;11.60;76.90
14727;DHT22;7454;51.256;8.176;2022-11-11T14:26:20;11.60;77.00
14727;DHT22;7454;51.256;8.176;2022-11-11T14:29:13;11.60;76.70
14727;DHT22;7454;51.256;8.176;2022-11-11T14:41:46;11.50;77.50
14727;DHT22;7454;51.256;8.176;2022-11-11T14:50:07;11.30;78.20
14727;DHT22;7454;51.256;8.176;2022-11-11T14:53:29;11.30;78.30
14727;DHT22;7454;51.256;8.176;2022-11-11T14:56:17;11.30;78.30
14727;DHT22;7454;51.256;8.176;2022-11-11T14:59:05;11.20;78.40
14727;DHT22;7454;51.256;8.176;2022-11-11T15:01:51;11.20;78.50
14727;DHT22;7454;51.256;8.176;2022-11-11T15:04:37;11.00;78.60
14727;DHT22;7454;51.256;8.176;2022-11-11T15:07:33;11.10;78.60
14727;DHT22;7454;51.256;8.176;2022-11-11T15:10:27;11.10;78.60
14727;DHT22;7454;51.256;8.176;2022-11-11T15:13:39;11.00;78.60
14727;DHT22;7454;51.256;8.176;2022-11-11T15:16:54;11.00;78.60
14727;DHT22;7454;51.256;8.176;2022-11-11T15:23:10;10.90;78.60
14727;DHT22;7454;51.256;8.176;2022-11-11T15:26:12;10.90;78.60
14727;DHT22;7454;51.256;8.176;2022-11-11T15:35:45;10.70;78.50
14727;DHT22;7454;51.256;8.176;2022-11-11T15:38:33;10.50;78.30
14727;DHT22;7454;51.256;8.176;2022-11-11T15:41:37;10.50;78.20
14727;DHT22;7454;51.256;8.176;2022-11-11T15:44:30;10.40;78.20
14727;DHT22;7454;51.256;8.176;2022-11-11T15:47:15;10.30;78.20
14727;DHT22;7454;51.256;8.176;2022-11-11T15:50:13;10.30;78.20
14727;DHT22;7454;51.256;8.176;2022-11-11T15:53:00;10.20;78.00
14727;DHT22;7454;51.256;8.176;2022-11-11T15:55:50;10.20;78.00
14727;DHT22;7454;51.256;8.176;2022-11-11T15:58:36;10.30;78.10
14727;DHT22;7454;51.256;8.176;2022-11-11T16:01:22;10.10;78.20
14727;DHT22;7454;51.256;8.176;2022-11-11T16:04:08;10.00;78.20
14727;DHT22;7454;51.256;8.176;2022-11-11T16:06:57;10.10;78.10
14727;DHT22;7454;51.256;8.176;2022-11-11T16:09:41;10.00;78.20
14727;DHT22;7454;51.256;8.176;2022-11-11T16:12:27;9.90;78.20
14727;DHT22;7454;51.256;8.176;2022-11-11T16:15:36;9.80;78.10
14727;DHT22;7454;51.256;8.176;2022-11-11T16:18:25;9.70;78.20
14727;DHT22;7454;51.256;8.176;2022-11-11T16:21:15;9.70;78.10
14727;DHT22;7454;51.256;8.176;2022-11-11T16:24:02;9.70;78.10
14727;DHT22;7454;51.256;8.176;2022-11-11T16:26:46;9.60;78.00
14727;DHT22;7454;51.256;8.176;2022-11-11T16:29:38;9.60;78.10
14727;DHT22;7454;51.256;8.176;2022-11-11T16:35:21;9.50;78.10
14727;DHT22;7454;51.256;8.176;2022-11-11T16:38:10;9.40;78.10
14727;DHT22;7454;51.256;8.176;2022-11-11T16:40:54;9.30;78.10
14727;DHT22;7454;51.256;8.176;2022-11-11T16:43:42;9.20;78.20
14727;DHT22;7454;51.256;8.176;2022-11-11T16:52:24;9.00;78.10
14727;DHT22;7454;51.256;8.176;2022-11-11T16:55:16;9.00;78.20
14727;DHT22;7454;51.256;8.176;2022-11-11T16:58:10;8.90;78.20
14727;DHT22;7454;51.256;8.176;2022-11-11T17:00:59;8.90;78.20
14727;DHT22;7454;51.256;8.176;2022-11-11T17:03:54;8.80;78.30
14727;DHT22;7454;51.256;8.176;2022-11-11T17:07:00;8.70;78.30
14727;DHT22;7454;51.256;8.176;2022-11-11T17:09:44;8.70;78.10
14727;DHT22;7454;51.256;8.176;2022-11-11T17:12:29;8.70;78.10
14727;DHT22;7454;51.256;8.176;2022-11-11T17:15:14;8.70;78.10
14727;DHT22;7454;51.256;8.176;2022-11-11T17:17:59;8.60;78.10
14727;DHT22;7454;51.256;8.176;2022-11-11T17:20:44;8.60;78.00
14727;DHT22;7454;51.256;8.176;2022-11-11T17:23:29;8.50;78.00
14727;DHT22;7454;51.256;8.176;2022-11-11T17:26:13;8.40;78.00
14727;DHT22;7454;51.256;8.176;2022-11-11T17:29:00;8.50;78.00
14727;DHT22;7454;51.256;8.176;2022-11-11T17:31:44;8.30;77.90
14727;DHT22;7454;51.256;8.176;2022-11-11T17:34:28;8.20;77.90
14727;DHT22;7454;51.256;8.176;2022-11-11T17:37:13;8.20;78.00
14727;DHT22;7454;51.256;8.176;2022-11-11T17:39:57;8.30;77.90
14727;DHT22;7454;51.256;8.176;2022-11-11T17:42:41;8.10;77.90
14727;DHT22;7454;51.256;8.176;2022-11-11T17:45:26;8.10;78.00
14727;DHT22;7454;51.256;8.176;2022-11-11T17:48:11;8.00;78.00
14727;DHT22;7454;51.256;8.176;2022-11-11T17:50:55;8.00;78.00
14727;DHT22;7454;51.256;8.176;2022-11-11T17:53:39;8.00;78.10
14727;DHT22;7454;51.256;8.176;2022-11-11T17:56:26;8.00;78.10
14727;DHT22;7454;51.256;8.176;2022-11-11T17:59:11;8.00;78.10
14727;DHT22;7454;51.256;8.176;2022-11-11T18:01:55;7.90;78.00
14727;DHT22;7454;51.256;8.176;2022-11-11T18:04:40;7.90;78.00
14727;DHT22;7454;51.256;8.176;2022-11-11T18:07:24;7.70;77.90
14727;DHT22;7454;51.256;8.176;2022-11-11T18:10:09;7.80;77.90
14727;DHT22;7454;51.256;8.176;2022-11-11T18:12:53;7.70;77.80
14727;DHT22;7454;51.256;8.176;2022-11-11T18:15:39;7.80;77.90
14727;DHT22;7454;51.256;8.176;2022-11-11T18:18:24;7.70;78.00
14727;DHT22;7454;51.256;8.176;2022-11-11T18:21:09;7.70;77.90
14727;DHT22;7454;51.256;8.176;2022-11-11T18:23:53;7.60;77.90
14727;DHT22;7454;51.256;8.176;2022-11-11T18:26:38;7.60;78.00
14727;DHT22;7454;51.256;8.176;2022-11-11T18:29:23;7.60;78.00
14727;DHT22;7454;51.256;8.176;2022-11-11T18:32:07;7.60;78.00
14727;DHT22;7454;51.256;8.176;2022-11-11T18:34:51;7.60;77.90
14727;DHT22;7454;51.256;8.176;2022-11-11T18:37:35;7.50;77.70
14727;DHT22;7454;51.256;8.176;2022-11-11T18:40:21;7.50;77.80
14727;DHT22;7454;51.256;8.176;2022-11-11T18:43:05;7.40;77.80
14727;DHT22;7454;51.256;8.176;2022-11-11T18:45:49;7.30;77.90
14727;DHT22;7454;51.256;8.176;2022-11-11T18:48:34;7.30;77.90
14727;DHT22;7454;51.256;8.176;2022-11-11T18:51:19;7.30;78.00
14727;DHT22;7454;51.256;8.176;2022-11-11T18:54:03;7.30;77.70
14727;DHT22;7454;51.256;8.176;2022-11-11T18:56:48;7.20;77.80
14727;DHT22;7454;51.256;8.176;2022-11-11T18:59:32;7.20;77.90
14727;DHT22;7454;51.256;8.176;2022-11-11T19:02:16;7.20;77.80
14727;DHT22;7454;51.256;8.176;2022-11-11T19:05:00;7.20;77.80
14727;DHT22;7454;51.256;8.176;2022-11-11T19:07:46;7.10;77.70
14727;DHT22;7454;51.256;8.176;2022-11-11T19:10:31;7.00;77.60
14727;DHT22;7454;51.256;8.176;2022-11-11T19:13:15;7.00;77.60
14727;DHT22;7454;51.256;8.176;2022-11-11T19:16:18;7.00;77.80
14727;DHT22;7454;51.256;8.176;2022-11-11T19:19:05;6.90;77.70
14727;DHT22;7454;51.256;8.176;2022-11-11T19:21:50;6.90;77.80
14727;DHT22;7454;51.256;8.176;2022-11-11T19:24:34;6.90;77.80
14727;DHT22;7454;51.256;8.176;2022-11-11T19:27:18;7.00;77.70
14727;DHT22;7454;51.256;8.176;2022-11-11T19:30:03;6.80;77.60
14727;DHT22;7454;51.256;8.176;2022-11-11T19:32:47;6.80;77.60
14727;DHT22;7454;51.256;8.176;2022-11-11T19:35:31;6.80;77.60
14727;DHT22;7454;51.256;8.176;2022-11-11T19:38:15;6.70;77.50
14727;DHT22;7454;51.256;8.176;2022-11-11T19:41:07;6.70;77.60
14727;DHT22;7454;51.256;8.176;2022-11-11T19:43:54;6.60;77.40
14727;DHT22;7454;51.256;8.176;2022-11-11T19:46:42;6.60;77.50
14727;DHT22;7454;51.256;8.176;2022-11-11T19:49:26;6.60;77.70
14727;DHT22;7454;51.256;8.176;2022-11-11T19:52:10;6.70;77.70
14727;DHT22;7454;51.256;8.176;2022-11-11T19:54:55;6.70;77.60
14727;DHT22;7454;51.256;8.176;2022-11-11T19:57:40;6.70;77.60
14727;DHT22;7454;51.256;8.176;2022-11-11T20:00:24;6.70;77.70
14727;DHT22;7454;51.256;8.176;2022-11-11T20:03:08;6.70;77.70
14727;DHT22;7454;51.256;8.176;2022-11-11T20:05:52;6.70;77.60
14727;DHT22;7454;51.256;8.176;2022-11-11T20:08:37;6.60;77.50
14727;DHT22;7454;51.256;8.176;2022-11-11T20:11:21;6.60;77.40
14727;DHT22;7454;51.256;8.176;2022-11-11T20:14:05;6.50;77.40
14727;DHT22;7454;51.256;8.176;2022-11-11T20:16:50;6.40;77.50
14727;DHT22;7454;51.256;8.176;2022-11-11T20:19:43;6.40;77.40
14727;DHT22;7454;51.256;8.176;2022-11-11T20:22:27;6.30;77.50
14727;DHT22;7454;51.256;8.176;2022-11-11T20:25:12;6.40;77.70
14727;DHT22;7454;51.256;8.176;2022-11-11T20:27:56;6.40;77.60
14727;DHT22;7454;51.256;8.176;2022-11-11T20:30:40;6.30;77.40
14727;DHT22;7454;51.256;8.176;2022-11-11T20:33:24;6.30;77.40
14727;DHT22;7454;51.256;8.176;2022-11-11T20:36:10;6.20;77.30